Time;durP1;ratioP1;P1;durP2;ratioP2;P2;SDS_P1;SDS_P2;PMS_P1;PMS_P2;Temp;Humidity;BMP_temperature;BMP_pressure;BME280_temperature;BME280_humidity;BME280_pressure;Samples;Min_cycle;Max_cycle;Signal;HPM_P1;HPM_P2
2021/08/05 00:00:20;;;;;;;1.52;1.23;;;24.20;45.10;;;;;;5068257;28;20259;-64
2021/08/05 00:02:46;;;;;;;1.17;1.02;;;24.20;45.10;;;;;;5065964;28;20256;-64
2021/08/05 00:05:13;;;;;;;1.40;1.10;;;24.20;45.10;;;;;;5070273;28;20218;-64
2021/08/05 00:07:39;;;;;;;1.30;1.20;;;24.20;45.10;;;;;;5069675;28;20700;-64
2021/08/05 00:10:06;;;;;;;1.33;1.15;;;24.20;45.10;;;;;;5060763;28;20252;-64
2021/08/05 00:12:32;;;;;;;1.10;1.00;;;24.10;45.10;;;;;;5070208;28;20231;-64
2021/08/05 00:14:59;;;;;;;1.35;1.20;;;24.20;45.10;;;;;;5065901;28;20340;-64
2021/08/05 00:17:25;;;;;;;1.00;1.00;;;24.20;45.10;;;;;;5075890;28;20211;-64
2021/08/05 00:19:51;;;;;;;1.50;1.40;;;24.10;45.10;;;;;;5069627;28;20867;-64
2021/08/05 00:22:18;;;;;;;3.03;1.15;;;24.20;45.10;;;;;;5070973;28;20624;-64
2021/08/05 00:24:44;;;;;;;1.30;1.10;;;24.20;45.10;;;;;;5069999;28;20295;-64
2021/08/05 00:27:11;;;;;;;1.30;1.20;;;24.20;45.10;;;;;;5068635;28;20207;-64
2021/08/05 00:29:37;;;;;;;1.50;1.40;;;24.20;45.10;;;;;;5068242;28;20304;-64
2021/08/05 00:32:04;;;;;;;1.40;1.30;;;24.20;45.10;;;;;;5070889;28;20665;-64
2021/08/05 00:34:30;;;;;;;1.17;1.08;;;24.10;45.10;;;;;;5068456;28;20324;-64
2021/08/05 00:36:57;;;;;;;1.30;1.20;;;24.20;45.20;;;;;;5069758;28;20201;-64
2021/08/05 00:39:23;;;;;;;1.80;1.45;;;24.20;45.20;;;;;;5070499;28;20245;-64
2021/08/05 00:41:50;;;;;;;1.65;1.10;;;24.20;45.20;;;;;;5070003;28;20207;-63
2021/08/05 00:44:16;;;;;;;1.20;1.10;;;24.20;45.20;;;;;;5068521;28;20209;-64
2021/08/05 00:46:43;;;;;;;1.40;1.30;;;24.10;45.10;;;;;;5068347;28;20634;-64
2021/08/05 00:49:09;;;;;;;1.30;1.20;;;24.20;45.20;;;;;;5071197;28;20311;-64
2021/08/05 00:51:35;;;;;;;1.27;1.17;;;24.10;45.20;;;;;;5066597;28;20201;-64
2021/08/05 00:54:02;;;;;;;1.23;1.13;;;24.20;45.20;;;;;;5068639;28;20317;-64
2021/08/05 00:56:28;;;;;;;0.93;0.93;;;24.20;45.20;;;;;;5069691;28;20368;-63
2021/08/05 00:58:55;;;;;;;1.40;1.30;;;24.20;45.20;;;;;;5070239;28;20221;-64
2021/08/05 01:01:21;;;;;;;1.20;1.10;;;24.20;45.20;;;;;;5069992;28;20292;-63
2021/08/05 01:03:48;;;;;;;1.58;1.38;;;24.10;45.20;;;;;;5079117;28;20243;-64
2021/08/05 01:06:14;;;;;;;1.10;0.93;;;24.20;45.20;;;;;;5073564;28;20215;-64
2021/08/05 01:08:41;;;;;;;1.35;1.25;;;24.20;45.30;;;;;;5073164;28;20651;-64
2021/08/05 01:11:07;;;;;;;1.20;1.10;;;24.20;45.30;;;;;;5080354;28;20224;-62
2021/08/05 01:13:34;;;;;;;1.30;1.20;;;24.10;45.20;;;;;;5074147;28;20254;-64
2021/08/05 01:16:01;;;;;;;1.63;1.30;;;24.20;45.30;;;;;;5073468;28;20681;-64
2021/08/05 01:18:27;;;;;;;1.20;1.10;;;24.20;45.30;;;;;;5071904;28;20269;-63
2021/08/05 01:20:53;;;;;;;1.20;1.10;;;24.20;45.40;;;;;;5066953;28;20224;-64
2021/08/05 01:23:20;;;;;;;1.10;1.00;;;24.20;45.50;;;;;;5073624;28;20236;-63
2021/08/05 01:25:47;;;;;;;1.20;1.10;;;24.20;45.50;;;;;;5073550;28;20325;-63
2021/08/05 01:28:13;;;;;;;1.58;1.13;;;24.20;45.50;;;;;;5072380;28;20232;-64
2021/08/05 01:30:40;;;;;;;1.38;0.90;;;24.20;45.50;;;;;;5084422;28;20231;-64
2021/08/05 01:33:07;;;;;;;1.30;1.20;;;24.20;45.50;;;;;;5072540;28;20233;-64
2021/08/05 01:35:33;;;;;;;1.10;1.00;;;24.10;45.40;;;;;;5073777;28;20228;-63
2021/08/05 01:37:59;;;;;;;2.92;1.05;;;24.20;45.50;;;;;;5073612;28;20252;-63
2021/08/05 01:40:26;;;;;;;1.40;1.17;;;24.20;45.50;;;;;;5071922;28;20667;-63
2021/08/05 01:42:52;;;;;;;1.55;1.30;;;24.20;45.50;;;;;;5074183;28;20412;-63
2021/08/05 01:45:19;;;;;;;1.33;1.13;;;24.20;45.40;;;;;;5072648;28;20205;-64
2021/08/05 01:47:45;;;;;;;1.35;1.05;;;24.20;45.40;;;;;;5072796;28;20204;-64
2021/08/05 01:50:12;;;;;;;1.40;1.20;;;24.20;45.40;;;;;;5079489;28;20295;-64
2021/08/05 01:52:38;;;;;;;1.30;1.20;;;24.20;45.40;;;;;;5072154;28;20278;-64
2021/08/05 01:55:05;;;;;;;1.67;1.13;;;24.20;45.40;;;;;;5087099;28;20598;-63
2021/08/05 01:57:32;;;;;;;0.90;0.90;;;24.20;45.40;;;;;;5073204;28;20288;-64
2021/08/05 01:59:58;;;;;;;1.00;1.00;;;24.20;45.40;;;;;;5075713;28;20653;-64
2021/08/05 02:02:25;;;;;;;1.42;1.33;;;24.20;45.40;;;;;;5075022;28;20560;-64
2021/08/05 02:04:51;;;;;;;0.95;0.90;;;24.20;45.30;;;;;;5073750;28;20296;-63
2021/08/05 02:07:17;;;;;;;2.17;1.20;;;24.20;45.40;;;;;;5072603;28;20228;-63
2021/08/05 02:09:44;;;;;;;1.30;1.20;;;24.20;45.40;;;;;;5072443;28;20308;-64
2021/08/05 02:12:10;;;;;;;1.48;1.10;;;24.10;45.20;;;;;;5074086;28;20291;-64
2021/08/05 02:14:37;;;;;;;1.20;1.10;;;24.20;45.30;;;;;;5072313;28;20677;-63
2021/08/05 02:17:03;;;;;;;1.70;1.00;;;24.20;45.30;;;;;;5071663;28;20212;-64
2021/08/05 02:19:30;;;;;;;1.38;1.05;;;24.10;45.20;;;;;;5072327;28;20259;-63
2021/08/05 02:21:56;;;;;;;1.55;1.20;;;24.10;45.20;;;;;;5075159;28;20284;-63
2021/08/05 02:24:27;;;;;;;1.10;1.00;;;24.20;45.30;;;;;;5072543;28;20291;-63
2021/08/05 02:26:53;;;;;;;1.08;0.90;;;24.10;45.20;;;;;;5072737;28;20219;-63
2021/08/05 02:29:20;;;;;;;1.58;1.10;;;24.20;45.30;;;;;;5072099;28;20224;-63
2021/08/05 02:31:46;;;;;;;1.30;1.20;;;24.20;45.30;;;;;;5081535;28;20303;-63
2021/08/05 02:34:13;;;;;;;1.83;1.30;;;24.20;45.30;;;;;;5073122;28;20631;-63
2021/08/05 02:36:39;;;;;;;1.25;1.17;;;24.20;45.30;;;;;;5071907;28;20194;-63
2021/08/05 02:39:06;;;;;;;1.00;1.00;;;24.10;45.30;;;;;;5072800;28;20304;-63
2021/08/05 02:41:32;;;;;;;1.00;0.90;;;24.20;45.30;;;;;;5076392;28;20291;-63
2021/08/05 02:43:59;;;;;;;1.80;1.30;;;24.10;45.20;;;;;;5083561;28;20721;-63
2021/08/05 02:46:25;;;;;;;1.45;1.13;;;24.20;45.30;;;;;;5070189;28;20259;-63
2021/08/05 02:48:52;;;;;;;1.30;1.20;;;24.10;45.20;;;;;;5070284;28;20225;-63
2021/08/05 02:51:18;;;;;;;1.10;0.90;;;24.20;45.30;;;;;;5069568;28;20383;-63
2021/08/05 02:53:44;;;;;;;1.23;1.10;;;24.10;45.20;;;;;;5071621;28;20547;-63
2021/08/05 02:56:11;;;;;;;1.45;1.10;;;24.10;45.20;;;;;;5072050;28;20251;-63
2021/08/05 02:58:38;;;;;;;1.30;1.00;;;24.10;45.20;;;;;;5075503;28;20249;-63
2021/08/05 03:01:05;;;;;;;1.20;1.10;;;24.20;45.30;;;;;;5071846;28;20293;-63
2021/08/05 03:03:31;;;;;;;1.02;1.02;;;24.10;45.20;;;;;;5074962;28;20197;-63
2021/08/05 03:05:58;;;;;;;1.02;1.00;;;24.20;45.30;;;;;;5071331;28;20255;-63
2021/08/05 03:08:24;;;;;;;0.80;0.80;;;24.20;45.30;;;;;;5071220;28;20338;-63
2021/08/05 03:10:51;;;;;;;1.42;1.00;;;24.20;45.30;;;;;;5071334;28;20625;-63
2021/08/05 03:13:17;;;;;;;0.93;0.90;;;24.20;45.30;;;;;;5071324;28;20429;-63
2021/08/05 03:15:44;;;;;;;1.30;1.15;;;24.20;45.30;;;;;;5070993;28;20229;-63
2021/08/05 03:18:10;;;;;;;1.75;1.17;;;24.20;45.30;;;;;;5071476;28;20308;-63
2021/08/05 03:20:37;;;;;;;1.70;1.00;;;24.20;45.30;;;;;;5064734;28;20194;-64
2021/08/05 03:23:03;;;;;;;1.15;0.88;;;24.20;45.30;;;;;;5074230;28;20203;-63
2021/08/05 03:25:30;;;;;;;0.90;0.90;;;24.20;45.30;;;;;;5075433;28;20204;-63
2021/08/05 03:27:56;;;;;;;0.90;0.90;;;24.20;45.30;;;;;;5070276;28;20235;-64
2021/08/05 03:30:22;;;;;;;1.30;1.20;;;24.10;45.20;;;;;;5071146;28;20680;-63
2021/08/05 03:32:49;;;;;;;1.42;1.10;;;24.20;45.30;;;;;;5072373;28;20288;-63
2021/08/05 03:35:15;;;;;;;1.00;0.90;;;24.20;45.30;;;;;;5077876;28;20239;-63
2021/08/05 03:37:42;;;;;;;1.08;0.98;;;24.10;45.20;;;;;;5070344;28;20227;-65
2021/08/05 03:40:08;;;;;;;1.10;1.00;;;24.10;45.20;;;;;;5071851;28;20335;-65
2021/08/05 03:42:35;;;;;;;1.00;1.00;;;24.10;45.20;;;;;;5070501;28;20671;-65
2021/08/05 03:45:01;;;;;;;1.40;1.30;;;24.20;45.30;;;;;;5084492;28;20239;-64
2021/08/05 03:47:28;;;;;;;0.80;0.80;;;24.20;45.30;;;;;;5071307;28;20220;-64
2021/08/05 03:49:54;;;;;;;1.10;1.00;;;24.20;45.30;;;;;;5070969;28;20201;-65
2021/08/05 03:52:20;;;;;;;0.98;0.98;;;24.20;45.30;;;;;;5069718;28;20303;-65
2021/08/05 03:54:47;;;;;;;0.95;0.95;;;24.20;45.30;;;;;;5076332;28;20588;-65
2021/08/05 03:57:13;;;;;;;1.55;0.90;;;24.10;45.20;;;;;;5070314;28;20311;-65
2021/08/05 03:59:40;;;;;;;0.90;0.90;;;24.10;45.20;;;;;;5069953;28;20204;-65
2021/08/05 04:02:07;;;;;;;1.40;1.10;;;24.10;45.20;;;;;;5070934;28;20201;-64
2021/08/05 04:04:33;;;;;;;1.05;0.95;;;24.20;45.30;;;;;;5070961;28;20301;-64
2021/08/05 04:07:00;;;;;;;0.85;0.85;;;24.20;45.30;;;;;;5077961;28;20207;-62
2021/08/05 04:09:26;;;;;;;1.40;0.90;;;24.20;45.30;;;;;;5077990;28;20308;-63
2021/08/05 04:11:52;;;;;;;1.75;1.10;;;24.10;45.30;;;;;;5070431;28;20680;-62
2021/08/05 04:14:19;;;;;;;1.10;1.00;;;24.10;45.30;;;;;;5070939;28;20216;-61
2021/08/05 04:16:46;;;;;;;0.90;0.90;;;24.20;45.40;;;;;;5069487;28;20201;-62
2021/08/05 04:19:12;;;;;;;1.27;1.05;;;24.20;45.40;;;;;;5070394;28;20208;-62
2021/08/05 04:21:38;;;;;;;0.85;0.85;;;24.10;45.30;;;;;;5070782;28;20212;-62
2021/08/05 04:24:05;;;;;;;1.00;1.00;;;24.10;45.30;;;;;;5069557;28;20197;-62
2021/08/05 04:26:31;;;;;;;1.20;1.10;;;24.10;45.30;;;;;;5075178;28;20576;-62
2021/08/05 04:28:58;;;;;;;0.93;0.93;;;24.10;45.30;;;;;;5070190;28;20236;-62
2021/08/05 04:31:24;;;;;;;0.93;0.93;;;24.10;45.30;;;;;;5070342;28;20570;-62
2021/08/05 04:33:50;;;;;;;1.23;1.05;;;24.20;45.40;;;;;;5070058;28;20201;-62
2021/08/05 04:36:17;;;;;;;1.20;1.10;;;24.20;45.40;;;;;;5073494;28;20227;-62
2021/08/05 04:38:43;;;;;;;1.63;0.88;;;24.10;45.30;;;;;;5090928;28;20220;-62
2021/08/05 04:41:09;;;;;;;0.75;0.75;;;24.20;45.40;;;;;;5075702;28;20208;-62
2021/08/05 04:43:36;;;;;;;1.00;1.00;;;24.10;45.40;;;;;;5074498;28;20209;-62
2021/08/05 04:46:02;;;;;;;1.38;0.90;;;24.10;45.40;;;;;;5073698;28;20205;-64
2021/08/05 04:48:29;;;;;;;1.10;1.00;;;24.10;45.30;;;;;;5073597;28;20265;-65
2021/08/05 04:50:55;;;;;;;1.13;1.02;;;24.20;45.40;;;;;;5072246;28;20201;-65
2021/08/05 04:53:22;;;;;;;0.80;0.80;;;24.20;45.40;;;;;;5074609;28;20232;-65
2021/08/05 04:55:48;;;;;;;0.85;0.85;;;24.10;45.30;;;;;;5073889;28;20316;-65
2021/08/05 04:58:15;;;;;;;0.90;0.90;;;24.20;45.40;;;;;;5074759;28;20224;-64
2021/08/05 05:00:41;;;;;;;1.10;1.10;;;24.10;45.30;;;;;;5073885;28;20232;-64
2021/08/05 05:03:08;;;;;;;1.13;1.02;;;24.10;45.30;;;;;;5074130;28;20697;-65
2021/08/05 05:05:34;;;;;;;1.20;1.10;;;24.20;45.40;;;;;;5072624;28;20244;-63
2021/08/05 05:08:01;;;;;;;0.77;0.77;;;24.20;45.40;;;;;;5070841;28;20303;-65
2021/08/05 05:10:27;;;;;;;0.70;0.70;;;24.20;45.40;;;;;;5072440;28;20583;-65
2021/08/05 05:12:53;;;;;;;0.80;0.80;;;24.20;45.50;;;;;;5074833;28;20228;-65
2021/08/05 05:15:20;;;;;;;0.95;0.80;;;24.20;45.60;;;;;;5073965;28;20398;-65
2021/08/05 05:17:46;;;;;;;1.00;0.90;;;24.10;45.60;;;;;;5073902;28;20762;-67
2021/08/05 05:20:13;;;;;;;1.50;0.93;;;24.20;45.70;;;;;;5083619;28;20221;-65
2021/08/05 05:22:39;;;;;;;0.90;0.90;;;24.20;45.70;;;;;;5062476;28;20248;-62
2021/08/05 05:25:06;;;;;;;1.38;1.27;;;24.10;45.70;;;;;;5072223;28;20236;-62
2021/08/05 05:27:32;;;;;;;0.90;0.90;;;24.20;45.70;;;;;;5072035;28;20243;-62
2021/08/05 05:30:01;;;;;;;3.33;0.73;;;24.10;45.60;;;;;;5071821;28;20236;-62
2021/08/05 05:32:27;;;;;;;0.90;0.90;;;24.20;45.70;;;;;;5073342;28;20204;-62
2021/08/05 05:34:54;;;;;;;1.10;1.00;;;24.20;45.60;;;;;;5073009;28;20208;-64
2021/08/05 05:37:22;;;;;;;1.02;0.80;;;24.20;45.60;;;;;;5072013;28;20635;-64
2021/08/05 05:39:48;;;;;;;0.93;0.88;;;24.10;45.60;;;;;;5067993;28;20198;-62
2021/08/05 05:42:15;;;;;;;1.77;0.77;;;24.20;45.70;;;;;;5071868;28;20220;-62
2021/08/05 05:44:41;;;;;;;1.13;1.02;;;24.20;45.70;;;;;;5073103;28;20200;-63
2021/08/05 05:47:07;;;;;;;0.90;0.90;;;24.20;45.70;;;;;;5072511;28;20275;-63
2021/08/05 05:49:34;;;;;;;1.02;0.93;;;24.20;45.70;;;;;;5072353;28;20755;-63
2021/08/05 05:52:00;;;;;;;0.82;0.82;;;24.20;45.60;;;;;;5070322;28;20205;-63
2021/08/05 05:54:27;;;;;;;0.80;0.80;;;24.20;45.60;;;;;;5072566;28;20224;-63
2021/08/05 05:56:53;;;;;;;1.67;1.00;;;24.10;45.60;;;;;;5071664;28;20288;-63
2021/08/05 05:59:20;;;;;;;1.00;0.93;;;24.10;45.60;;;;;;5087157;28;20200;-64
2021/08/05 06:01:46;;;;;;;1.00;0.90;;;24.10;45.60;;;;;;5076141;28;20221;-64
2021/08/05 06:04:13;;;;;;;1.00;0.90;;;24.10;45.60;;;;;;5071464;28;20286;-64
2021/08/05 06:06:39;;;;;;;1.00;1.00;;;24.20;45.60;;;;;;5068584;28;21405;-63
2021/08/05 06:09:06;;;;;;;2.53;1.10;;;24.20;45.80;;;;;;5072082;28;20212;-61
2021/08/05 06:11:32;;;;;;;0.82;0.82;;;24.20;45.60;;;;;;5071004;28;20634;-62
2021/08/05 06:13:59;;;;;;;0.98;0.93;;;24.20;45.60;;;;;;5071462;28;20239;-63
2021/08/05 06:16:25;;;;;;;1.10;1.08;;;24.10;45.70;;;;;;5071638;28;20272;-63
2021/08/05 06:18:52;;;;;;;0.88;0.80;;;24.20;45.90;;;;;;5072062;28;20248;-63
2021/08/05 06:21:18;;;;;;;1.10;1.00;;;24.20;45.90;;;;;;5072206;28;20235;-63
2021/08/05 06:23:45;;;;;;;1.60;0.98;;;24.20;46.00;;;;;;5070091;28;20228;-63
2021/08/05 06:26:11;;;;;;;5.97;0.95;;;24.20;46.00;;;;;;5071832;28;20581;-60
2021/08/05 06:28:38;;;;;;;1.80;1.00;;;24.20;46.20;;;;;;5071873;28;20237;-60
2021/08/05 06:31:04;;;;;;;1.88;1.02;;;24.20;46.10;;;;;;5073044;28;20270;-62
2021/08/05 06:33:31;;;;;;;4.60;1.10;;;24.20;46.20;;;;;;5070585;28;20221;-62
2021/08/05 06:35:57;;;;;;;2.60;1.33;;;24.20;46.30;;;;;;5065585;28;20316;-63
2021/08/05 06:38:24;;;;;;;2.15;1.58;;;23.30;44.60;;;;;;5070597;28;20239;-64
2021/08/05 06:40:50;;;;;;;2.70;1.85;;;21.40;47.60;;;;;;5072026;28;20227;-63
2021/08/05 06:43:16;;;;;;;6.30;1.80;;;21.30;48.20;;;;;;5068965;28;20232;-63
2021/08/05 06:45:43;;;;;;;2.92;1.33;;;21.50;48.30;;;;;;5072041;28;20284;-63
2021/08/05 06:48:09;;;;;;;4.95;1.30;;;22.30;46.80;;;;;;5070374;28;20256;-63
2021/08/05 06:50:36;;;;;;;2.58;1.45;;;22.80;46.50;;;;;;5072194;28;20236;-63
2021/08/05 06:53:02;;;;;;;2.95;1.30;;;23.10;46.10;;;;;;5071050;28;20641;-63
2021/08/05 06:55:29;;;;;;;2.40;1.10;;;23.30;45.90;;;;;;5071647;28;20252;-63
2021/08/05 06:57:55;;;;;;;1.40;1.30;;;23.40;45.70;;;;;;5071080;28;20252;-63
2021/08/05 07:00:22;;;;;;;3.15;1.55;;;23.50;45.60;;;;;;5070419;28;20298;-63
2021/08/05 07:02:48;;;;;;;1.77;1.35;;;23.60;45.60;;;;;;5070977;28;20197;-63
2021/08/05 07:05:15;;;;;;;1.60;1.27;;;23.70;45.70;;;;;;5070114;28;20692;-63
2021/08/05 07:07:42;;;;;;;1.58;1.48;;;23.70;46.30;;;;;;5070836;28;20267;-65
2021/08/05 07:10:08;;;;;;;1.58;1.20;;;23.70;45.60;;;;;;5070374;28;20240;-72
2021/08/05 07:12:34;;;;;;;1.23;1.10;;;23.80;45.70;;;;;;5069607;28;20620;-70
2021/08/05 07:15:01;;;;;;;3.33;1.35;;;23.80;45.60;;;;;;5068892;28;20224;-63
2021/08/05 07:17:27;;;;;;;1.52;1.23;;;23.80;45.70;;;;;;5070581;28;20286;-65
2021/08/05 07:19:54;;;;;;;2.60;1.38;;;23.80;45.60;;;;;;5071219;28;20268;-63
2021/08/05 07:22:20;;;;;;;2.67;1.30;;;23.90;45.90;;;;;;5067821;28;20224;-62
2021/08/05 07:24:47;;;;;;;1.10;1.00;;;23.90;45.90;;;;;;5069686;28;20249;-62
2021/08/05 07:27:14;;;;;;;3.85;1.60;;;23.90;45.90;;;;;;5068110;28;20225;-58
2021/08/05 07:29:40;;;;;;;3.05;1.40;;;23.70;46.10;;;;;;5071678;28;20676;-64
2021/08/05 07:32:07;;;;;;;3.03;1.80;;;23.50;46.20;;;;;;5069752;28;20205;-68
2021/08/05 07:34:33;;;;;;;1.92;1.13;;;23.30;46.30;;;;;;5069972;28;20278;-69
2021/08/05 07:37:00;;;;;;;3.60;1.42;;;23.50;45.90;;;;;;5067497;28;20260;-67
2021/08/05 07:39:26;;;;;;;1.95;1.15;;;23.70;45.60;;;;;;5070552;28;20228;-62
2021/08/05 07:41:53;;;;;;;1.75;1.20;;;23.70;45.40;;;;;;5069677;28;20205;-65
2021/08/05 07:44:19;;;;;;;2.55;1.40;;;23.80;45.30;;;;;;5072080;28;20267;-65
2021/08/05 07:46:47;;;;;;;1.50;1.20;;;23.80;45.30;;;;;;5069275;28;20659;-65
2021/08/05 07:49:13;;;;;;;2.50;1.48;;;23.90;45.30;;;;;;5071528;28;20390;-68
2021/08/05 07:51:40;;;;;;;2.95;1.30;;;23.90;45.50;;;;;;5068682;28;20653;-63
2021/08/05 07:54:06;;;;;;;2.75;1.55;;;23.90;45.70;;;;;;5069414;28;20201;-65
2021/08/05 07:56:33;;;;;;;2.38;1.30;;;23.90;45.70;;;;;;5065839;28;20640;-68
2021/08/05 07:58:59;;;;;;;2.83;1.10;;;23.90;45.60;;;;;;5069312;28;20224;-66
2021/08/05 08:01:26;;;;;;;1.25;1.10;;;23.90;45.50;;;;;;5071598;28;20244;-68
2021/08/05 08:03:52;;;;;;;1.60;1.30;;;23.90;45.50;;;;;;5071803;28;20189;-69
2021/08/05 08:06:19;;;;;;;1.40;1.30;;;23.90;45.50;;;;;;5071450;28;20271;-69
2021/08/05 08:08:45;;;;;;;1.55;1.42;;;23.90;45.50;;;;;;5071851;28;20255;-69
2021/08/05 08:11:12;;;;;;;1.63;1.20;;;23.90;45.50;;;;;;5071909;28;20240;-68
2021/08/05 08:13:38;;;;;;;3.03;1.38;;;23.90;45.50;;;;;;5070967;28;20232;-68
2021/08/05 08:16:05;;;;;;;1.50;1.40;;;23.90;45.50;;;;;;5070461;28;20224;-68
2021/08/05 08:18:32;;;;;;;1.60;1.20;;;23.90;45.40;;;;;;5071852;28;20273;-68
2021/08/05 08:20:59;;;;;;;1.55;1.20;;;23.90;45.40;;;;;;5071621;28;20288;-67
2021/08/05 08:23:26;;;;;;;2.80;1.50;;;23.90;45.40;;;;;;5071718;28;20236;-67
2021/08/05 08:25:52;;;;;;;2.17;1.63;;;23.90;45.30;;;;;;5070605;28;20311;-68
2021/08/05 08:28:19;;;;;;;1.77;1.30;;;23.90;45.30;;;;;;5071469;28;20654;-68
2021/08/05 08:30:45;;;;;;;1.63;1.40;;;23.90;45.20;;;;;;5071289;28;20233;-68
2021/08/05 08:33:12;;;;;;;2.75;1.40;;;23.90;45.20;;;;;;5071602;28;20239;-67
2021/08/05 08:35:38;;;;;;;1.80;1.50;;;24.00;45.30;;;;;;5065310;28;20695;-68
2021/08/05 08:38:06;;;;;;;2.35;1.33;;;23.90;45.20;;;;;;5057110;28;20221;-68
2021/08/05 08:40:33;;;;;;;2.53;1.55;;;23.90;45.30;;;;;;5071671;28;20258;-68
2021/08/05 08:43:00;;;;;;;1.63;1.40;;;23.90;45.20;;;;;;5071252;28;20236;-68
2021/08/05 08:45:27;;;;;;;2.63;1.30;;;23.90;45.20;;;;;;5071737;28;20280;-68
2021/08/05 08:47:53;;;;;;;2.65;1.50;;;23.90;45.20;;;;;;5068389;28;20247;-68
2021/08/05 08:50:20;;;;;;;1.83;1.35;;;23.90;45.10;;;;;;5065189;28;20224;-68
2021/08/05 08:52:46;;;;;;;1.42;1.33;;;24.00;45.20;;;;;;5068200;28;20247;-69
2021/08/05 08:55:12;;;;;;;1.75;1.25;;;24.00;45.40;;;;;;5070044;28;20669;-65
2021/08/05 08:57:39;;;;;;;2.08;1.20;;;24.00;46.10;;;;;;5067320;28;20249;-58
2021/08/05 09:00:05;;;;;;;2.05;1.40;;;24.00;45.40;;;;;;5070442;28;20661;-69
2021/08/05 09:02:32;;;;;;;1.80;1.58;;;24.10;45.40;;;;;;5069473;28;22083;-68
2021/08/05 09:04:58;;;;;;;1.55;1.45;;;24.10;45.30;;;;;;5069609;28;20228;-69
2021/08/05 09:07:25;;;;;;;2.13;1.50;;;24.10;45.40;;;;;;5066035;28;20709;-73
2021/08/05 09:09:51;;;;;;;1.67;1.55;;;24.10;45.40;;;;;;5069305;28;20224;-71
2021/08/05 09:12:18;;;;;;;3.45;1.60;;;24.10;45.50;;;;;;5069349;28;20266;-67
2021/08/05 09:14:44;;;;;;;1.70;1.60;;;24.10;45.30;;;;;;5071392;28;20632;-67
2021/08/05 09:17:11;;;;;;;1.60;1.50;;;24.10;45.70;;;;;;5068356;28;20268;-67
2021/08/05 09:19:37;;;;;;;2.28;1.30;;;24.10;45.60;;;;;;5077358;28;20228;-69
2021/08/05 09:22:04;;;;;;;1.40;1.20;;;24.10;45.80;;;;;;5077174;28;20627;-67
2021/08/05 09:24:30;;;;;;;2.28;1.45;;;24.20;45.70;;;;;;5070213;28;20228;-68
2021/08/05 09:26:59;;;;;;;3.75;1.55;;;24.20;46.40;;;;;;5071079;28;20705;-65
2021/08/05 09:29:25;;;;;;;2.70;1.60;;;24.20;47.70;;;;;;5071262;28;20206;-73
2021/08/05 09:31:53;;;;;;;3.80;1.40;;;24.20;47.00;;;;;;5073709;28;20227;-70
2021/08/05 09:34:20;;;;;;;2.72;1.60;;;24.20;47.00;;;;;;5072792;28;20205;-62
2021/08/05 09:36:46;;;;;;;2.05;1.35;;;24.20;47.80;;;;;;5072443;28;20264;-65
2021/08/05 09:39:13;;;;;;;3.00;1.73;;;24.20;47.80;;;;;;5070183;28;20288;-64
2021/08/05 09:41:39;;;;;;;2.38;1.88;;;24.30;48.30;;;;;;5072256;28;20226;-65
2021/08/05 09:44:06;;;;;;;3.70;2.20;;;24.20;48.80;;;;;;5072727;28;20294;-65
2021/08/05 09:46:33;;;;;;;7.35;3.35;;;24.20;48.80;;;;;;5072837;28;20217;-65
2021/08/05 09:48:59;;;;;;;7.47;3.88;;;24.20;49.10;;;;;;5073630;28;20193;-65
2021/08/05 09:51:26;;;;;;;13.20;5.30;;;24.20;49.30;;;;;;5070506;28;20198;-65
2021/08/05 09:53:53;;;;;;;10.13;5.28;;;24.20;49.40;;;;;;5067271;28;20197;-65
2021/08/05 09:56:19;;;;;;;28.95;13.35;;;24.20;49.40;;;;;;5069925;28;20654;-64
2021/08/05 09:58:46;;;;;;;14.75;7.68;;;24.20;48.20;;;;;;5072253;28;20221;-64
2021/08/05 10:01:12;;;;;;;11.63;6.30;;;23.90;46.40;;;;;;5072614;28;20732;-65
2021/08/05 10:03:39;;;;;;;14.05;7.60;;;23.80;46.30;;;;;;5079615;28;20248;-65
2021/08/05 10:06:07;;;;;;;10.68;5.43;;;23.90;46.50;;;;;;5070076;28;20229;-65
2021/08/05 10:08:34;;;;;;;8.82;4.95;;;23.90;46.40;;;;;;5070642;28;20550;-64
2021/08/05 10:11:00;;;;;;;8.13;3.78;;;23.90;46.00;;;;;;5072573;28;20296;-64
2021/08/05 10:13:27;;;;;;;8.55;4.95;;;23.90;45.60;;;;;;5071882;28;20291;-64
2021/08/05 10:15:54;;;;;;;7.82;3.72;;;24.00;45.60;;;;;;5072009;28;20225;-64
2021/08/05 10:18:20;;;;;;;8.20;4.18;;;24.00;47.10;;;;;;5063274;28;20272;-65
2021/08/05 10:20:47;;;;;;;4.32;3.25;;;24.00;47.10;;;;;;5066857;28;20224;-70
2021/08/05 10:23:13;;;;;;;5.18;3.15;;;24.00;45.70;;;;;;5068818;28;20270;-68
2021/08/05 10:25:40;;;;;;;4.82;3.13;;;24.00;46.20;;;;;;5071141;28;20228;-67
2021/08/05 10:28:06;;;;;;;3.85;2.88;;;24.00;45.90;;;;;;5071295;28;20236;-63
2021/08/05 10:30:33;;;;;;;3.65;2.58;;;24.00;46.10;;;;;;5070904;28;20334;-62
2021/08/05 10:32:59;;;;;;;3.72;2.50;;;24.00;46.80;;;;;;5069979;28;20208;-70
2021/08/05 10:35:26;;;;;;;3.30;2.20;;;23.90;44.80;;;;;;5065929;28;20660;-69
2021/08/05 10:37:52;;;;;;;3.03;2.33;;;23.90;45.40;;;;;;5072012;28;20262;-69
2021/08/05 10:40:19;;;;;;;3.20;2.55;;;23.90;45.10;;;;;;5078153;28;20232;-69
2021/08/05 10:42:45;;;;;;;3.28;2.33;;;23.90;45.50;;;;;;5074552;28;20220;-68
2021/08/05 10:45:12;;;;;;;2.88;2.58;;;23.90;45.70;;;;;;5072526;28;20249;-69
2021/08/05 10:47:38;;;;;;;2.72;2.30;;;23.90;45.70;;;;;;5072317;28;20237;-69
2021/08/05 10:50:05;;;;;;;2.30;2.10;;;23.90;45.90;;;;;;5070352;28;20209;-68
2021/08/05 10:52:32;;;;;;;4.68;2.20;;;23.80;45.60;;;;;;5072891;28;20197;-68
2021/08/05 10:54:58;;;;;;;2.40;2.20;;;23.90;46.00;;;;;;5067195;28;20705;-68
2021/08/05 10:57:25;;;;;;;2.47;2.28;;;23.90;45.80;;;;;;5071150;28;20260;-70
2021/08/05 10:59:51;;;;;;;5.85;2.10;;;23.90;45.90;;;;;;5071087;28;20258;-69
2021/08/05 11:02:18;;;;;;;3.83;2.63;;;23.90;47.60;;;;;;5070184;28;20566;-69
2021/08/05 11:04:46;;;;;;;3.35;2.42;;;24.00;48.60;;;;;;5081271;28;20696;-69
2021/08/05 11:07:12;;;;;;;3.45;2.33;;;24.00;48.60;;;;;;5068134;28;20206;-69
2021/08/05 11:09:39;;;;;;;3.58;2.55;;;24.00;48.90;;;;;;5060439;28;20506;-69
2021/08/05 11:12:05;;;;;;;4.55;2.60;;;24.00;48.90;;;;;;5076667;28;20236;-69
2021/08/05 11:14:32;;;;;;;3.25;2.60;;;24.00;48.70;;;;;;5071335;28;20259;-69
2021/08/05 11:16:59;;;;;;;2.47;2.05;;;24.00;47.70;;;;;;5070411;28;20256;-70
2021/08/05 11:19:25;;;;;;;3.58;2.30;;;24.00;48.30;;;;;;5081020;28;20235;-70
2021/08/05 11:21:52;;;;;;;5.00;2.60;;;24.00;49.00;;;;;;5071848;28;20205;-70
2021/08/05 11:24:18;;;;;;;5.22;2.60;;;24.00;49.40;;;;;;5072641;28;20229;-70
2021/08/05 11:26:45;;;;;;;3.10;2.25;;;24.00;49.70;;;;;;5086838;28;20216;-70
2021/08/05 11:29:11;;;;;;;8.98;3.45;;;24.00;50.10;;;;;;5074439;28;20201;-72
2021/08/05 11:31:42;;;;;;;4.25;2.60;;;24.00;50.60;;;;;;5071069;28;20276;-71
2021/08/05 11:34:12;;;;;;;2.58;2.30;;;24.10;50.50;;;;;;5071804;28;20215;-72
2021/08/05 11:36:42;;;;;;;4.35;2.20;;;24.10;50.30;;;;;;5069162;28;20680;-72
2021/08/05 11:39:09;;;;;;;4.85;2.42;;;24.10;50.30;;;;;;5074801;28;20304;-71
2021/08/05 11:41:35;;;;;;;4.05;2.28;;;24.20;51.10;;;;;;5071212;28;20299;-71
2021/08/05 11:44:02;;;;;;;3.35;2.30;;;24.10;51.50;;;;;;5071587;28;20350;-71
2021/08/05 11:46:30;;;;;;;3.13;2.53;;;24.10;51.50;;;;;;5071732;28;20244;-72
2021/08/05 11:48:57;;;;;;;2.63;2.22;;;24.20;52.40;;;;;;5071049;28;20201;-70
2021/08/05 11:51:23;;;;;;;4.43;2.33;;;24.20;51.90;;;;;;5069225;28;20734;-70
2021/08/05 11:53:50;;;;;;;2.60;2.00;;;24.20;51.90;;;;;;5071404;28;20247;-69
2021/08/05 11:56:16;;;;;;;3.38;2.35;;;24.20;51.80;;;;;;5072763;28;20217;-69
2021/08/05 11:58:43;;;;;;;4.68;2.20;;;24.20;51.80;;;;;;5078438;28;20252;-70
2021/08/05 12:01:09;;;;;;;2.33;2.05;;;24.20;52.00;;;;;;5071182;28;20604;-69
2021/08/05 12:03:36;;;;;;;2.80;2.03;;;24.20;51.90;;;;;;5075006;28;20234;-69
2021/08/05 12:06:02;;;;;;;3.67;2.15;;;24.20;51.90;;;;;;5071921;28;20279;-72
2021/08/05 12:08:29;;;;;;;2.78;2.17;;;24.20;52.00;;;;;;5071173;28;20255;-72
2021/08/05 12:10:55;;;;;;;3.35;2.13;;;24.20;52.10;;;;;;5071329;28;20205;-71
2021/08/05 12:13:22;;;;;;;3.33;2.20;;;24.10;52.40;;;;;;5072513;28;20247;-72
2021/08/05 12:15:50;;;;;;;3.47;2.10;;;24.10;52.50;;;;;;5076438;28;20284;-70
2021/08/05 12:18:18;;;;;;;4.32;2.17;;;24.10;52.20;;;;;;5072706;28;20596;-71
2021/08/05 12:20:44;;;;;;;2.55;2.00;;;24.20;52.50;;;;;;5070636;28;20201;-70
2021/08/05 12:23:13;;;;;;;2.63;1.98;;;24.20;52.50;;;;;;5072045;28;20300;-69
2021/08/05 12:25:42;;;;;;;3.13;2.13;;;24.10;52.50;;;;;;5072221;28;20221;-70
2021/08/05 12:28:10;;;;;;;2.60;2.10;;;24.10;52.50;;;;;;5071870;28;20697;-69
2021/08/05 12:30:36;;;;;;;4.35;2.13;;;24.10;52.40;;;;;;5072255;28;20220;-70
2021/08/05 12:33:03;;;;;;;3.00;2.20;;;24.10;51.00;;;;;;5069543;28;20205;-70
2021/08/05 12:35:29;;;;;;;2.70;1.90;;;24.10;51.00;;;;;;5072252;28;20248;-69
2021/08/05 12:37:56;;;;;;;2.25;1.90;;;24.10;50.00;;;;;;5078247;28;20217;-69
2021/08/05 12:40:22;;;;;;;1.90;1.80;;;24.20;49.20;;;;;;5068641;28;20659;-69